Time;durP1;ratioP1;P1;durP2;ratioP2;P2;SDS_P1;SDS_P2;PMS_P1;PMS_P2;Temp;Humidity;BMP_temperature;BMP_pressure;BME280_temperature;BME280_humidity;BME280_pressure;Samples;Min_cycle;Max_cycle;Signal;HPM_P1;HPM_P2
2021/06/21 00:02:25;;;;;;;7.07;3.17;;;20.20;1.00;;;;;;5082605;28;20447;-75
2021/06/21 00:04:52;;;;;;;6.73;2.30;;;20.20;1.00;;;;;;5093485;28;20377;-76
2021/06/21 00:07:22;;;;;;;3.20;2.23;;;20.20;1.00;;;;;;5093095;28;20375;-76
2021/06/21 00:09:48;;;;;;;2.70;1.80;;;20.20;1.00;;;;;;5091315;28;20462;-75
2021/06/21 00:12:15;;;;;;;3.07;1.73;;;20.20;1.00;;;;;;5071491;28;20418;-76
2021/06/21 00:14:42;;;;;;;17.57;2.27;;;20.30;1.00;;;;;;5072356;28;20175;-76
2021/06/21 00:17:08;;;;;;;3.87;2.00;;;20.30;1.00;;;;;;5078748;28;20559;-76
2021/06/21 00:19:34;;;;;;;7.53;2.60;;;20.30;1.00;;;;;;5093359;28;20426;-75
2021/06/21 00:22:02;;;;;;;8.50;3.70;;;20.30;1.00;;;;;;5092872;28;20886;-75
2021/06/21 00:24:34;;;;;;;9.47;3.30;;;20.30;1.00;;;;;;5093250;28;20178;-75
2021/06/21 00:27:00;;;;;;;13.13;3.50;;;;;;;;;;5091043;28;20506;-76
2021/06/21 00:29:26;;;;;;;5.23;2.80;;;;;;;;;;5089254;28;20822;-76
2021/06/21 00:31:52;;;;;;;8.73;3.23;;;20.20;1.00;;;;;;5072623;28;20386;-76
2021/06/21 00:34:18;;;;;;;5.70;3.43;;;20.20;1.00;;;;;;5073035;28;20494;-75
2021/06/21 00:36:44;;;;;;;15.83;4.53;;;20.20;1.00;;;;;;5074022;28;20229;-74
2021/06/21 00:39:10;;;;;;;8.40;2.50;;;20.20;1.00;;;;;;5086800;28;20178;-74
2021/06/21 00:41:40;;;;;;;7.50;2.63;;;20.20;1.00;;;;;;5073025;28;20247;-74
2021/06/21 00:44:08;;;;;;;4.80;2.50;;;20.10;1.00;;;;;;5073464;28;20474;-74
2021/06/21 00:46:35;;;;;;;6.03;2.47;;;20.10;1.00;;;;;;5092767;28;20403;-74
2021/06/21 00:49:01;;;;;;;6.83;2.53;;;20.10;1.00;;;;;;5086158;28;20432;-74
2021/06/21 00:51:30;;;;;;;6.03;2.00;;;20.10;1.00;;;;;;5097292;28;20412;-74
2021/06/21 00:53:56;;;;;;;5.43;2.40;;;20.00;1.00;;;;;;5096766;28;20189;-74
2021/06/21 00:56:23;;;;;;;16.03;2.77;;;20.00;1.00;;;;;;5081985;28;20474;-74
2021/06/21 00:58:55;;;;;;;9.30;2.30;;;19.90;1.00;;;;;;5082570;28;20908;-74
2021/06/21 01:01:21;;;;;;;7.73;1.83;;;20.00;1.00;;;;;;5094950;28;21088;-73
2021/06/21 01:03:52;;;;;;;23.10;3.27;;;19.90;1.00;;;;;;5074875;28;20432;-74
2021/06/21 01:06:22;;;;;;;11.90;2.47;;;19.80;1.00;;;;;;5075492;28;20177;-76
2021/06/21 01:08:53;;;;;;;12.07;1.93;;;19.70;1.00;;;;;;5083784;28;20439;-76
2021/06/21 01:11:18;;;;;;;25.43;3.17;;;19.60;1.00;;;;;;5075809;28;20403;-75
2021/06/21 01:14:06;;;;;;;8.17;2.10;;;19.60;1.00;;;;;;5089063;28;20441;-76
2021/06/21 01:16:53;;;;;;;5.77;2.70;;;19.60;1.00;;;;;;5094244;28;20912;-76
2021/06/21 01:19:50;;;;;;;6.90;2.60;;;19.50;1.00;;;;;;5076213;28;20555;-76
2021/06/21 01:22:48;;;;;;;17.30;2.50;;;19.50;1.00;;;;;;5091080;28;21020;-74
2021/06/21 01:25:20;;;;;;;9.83;2.43;;;19.40;1.00;;;;;;5091036;28;20420;-74
2021/06/21 01:27:56;;;;;;;7.30;2.47;;;19.40;1.00;;;;;;5075459;28;20870;-74
2021/06/21 01:30:28;;;;;;;13.83;3.03;;;19.30;1.00;;;;;;5075235;28;20390;-74
2021/06/21 01:32:59;;;;;;;10.20;2.93;;;19.30;1.00;;;;;;5095178;28;20724;-74
2021/06/21 01:35:36;;;;;;;9.00;2.13;;;19.20;1.00;;;;;;5095682;28;20865;-74
2021/06/21 01:38:05;;;;;;;8.40;2.17;;;19.20;1.00;;;;;;5083200;28;20424;-73
2021/06/21 01:40:38;;;;;;;10.03;1.73;;;19.10;1.00;;;;;;5075868;28;20408;-74
2021/06/21 01:43:06;;;;;;;14.07;2.50;;;19.00;1.00;;;;;;5076253;28;20902;-74
2021/06/21 01:45:35;;;;;;;9.87;2.43;;;19.00;1.00;;;;;;5075567;28;20401;-73
2021/06/21 01:48:02;;;;;;;11.90;2.77;;;18.90;1.00;;;;;;5075313;28;20759;-74
2021/06/21 01:50:29;;;;;;;8.77;3.10;;;18.80;1.00;;;;;;5075000;28;20378;-73
2021/06/21 01:53:06;;;;;;;13.30;3.10;;;18.80;1.00;;;;;;5075280;28;20921;-73
2021/06/21 01:55:34;;;;;;;13.60;2.30;;;18.80;1.00;;;;;;5075051;28;20458;-74
2021/06/21 01:58:00;;;;;;;10.43;3.40;;;18.80;1.00;;;;;;5085213;28;20453;-73
2021/06/21 02:00:27;;;;;;;8.30;2.17;;;18.70;1.00;;;;;;5094732;28;20904;-74
2021/06/21 02:02:55;;;;;;;11.40;2.33;;;18.70;1.00;;;;;;5091763;28;20890;-74
2021/06/21 02:05:24;;;;;;;7.00;2.20;;;18.60;1.00;;;;;;5075480;28;20371;-75
2021/06/21 02:07:51;;;;;;;28.67;2.60;;;18.70;1.00;;;;;;5075050;28;20483;-75
2021/06/21 02:10:22;;;;;;;19.83;2.50;;;18.60;1.00;;;;;;5075388;28;20424;-76
2021/06/21 02:12:53;;;;;;;20.30;2.47;;;18.60;1.00;;;;;;5076156;28;20850;-75
2021/06/21 02:15:22;;;;;;;9.27;2.00;;;18.60;1.00;;;;;;5075390;28;20370;-76
2021/06/21 02:17:50;;;;;;;15.20;2.20;;;18.50;1.00;;;;;;5076955;28;20526;-76
2021/06/21 02:20:16;;;;;;;9.27;2.73;;;18.50;1.00;;;;;;5075325;28;20453;-76
2021/06/21 02:22:42;;;;;;;18.27;2.93;;;18.50;1.00;;;;;;5076845;28;20378;-75
2021/06/21 02:25:11;;;;;;;27.87;3.93;;;18.40;1.00;;;;;;5095250;28;20820;-75
2021/06/21 02:27:42;;;;;;;9.80;2.50;;;18.40;1.00;;;;;;5094453;28;20408;-75
2021/06/21 02:30:17;;;;;;;9.40;2.33;;;18.40;1.00;;;;;;5095277;28;20399;-75
2021/06/21 02:32:47;;;;;;;12.63;2.60;;;18.40;1.00;;;;;;5090102;28;20744;-75
2021/06/21 02:35:15;;;;;;;11.37;2.27;;;18.30;1.00;;;;;;5075019;28;20374;-75
2021/06/21 02:37:42;;;;;;;24.53;2.83;;;18.40;1.00;;;;;;5086013;28;20411;-75
2021/06/21 02:40:14;;;;;;;17.73;3.20;;;18.30;1.00;;;;;;5093747;28;20377;-75
2021/06/21 02:42:41;;;;;;;13.53;2.63;;;18.30;1.00;;;;;;5093818;28;20457;-75
2021/06/21 02:45:08;;;;;;;17.13;3.23;;;18.20;1.00;;;;;;5094303;28;20399;-75
2021/06/21 02:47:34;;;;;;;8.60;1.93;;;18.20;1.00;;;;;;5080743;28;20424;-75
2021/06/21 02:50:06;;;;;;;8.40;2.50;;;18.30;1.00;;;;;;5074718;28;20386;-75
2021/06/21 02:52:48;;;;;;;11.47;2.47;;;18.20;1.00;;;;;;5074530;28;20406;-74
2021/06/21 02:55:36;;;;;;;14.77;2.67;;;18.20;1.00;;;;;;5087086;28;20891;-74
2021/06/21 02:58:13;;;;;;;12.13;2.57;;;18.20;1.00;;;;;;5085757;28;20747;-74
2021/06/21 03:00:40;;;;;;;13.70;3.50;;;18.10;1.00;;;;;;5093248;28;20426;-74
2021/06/21 03:03:09;;;;;;;16.37;4.00;;;18.20;1.00;;;;;;5093788;28;20487;-74
2021/06/21 03:05:42;;;;;;;14.70;3.40;;;18.10;1.00;;;;;;5092080;28;20386;-74
2021/06/21 03:08:12;;;;;;;19.73;2.67;;;18.10;1.00;;;;;;5092171;28;20741;-74
2021/06/21 03:10:39;;;;;;;15.63;3.23;;;18.10;1.00;;;;;;5093306;28;20360;-73
2021/06/21 03:13:07;;;;;;;10.07;2.80;;;18.00;1.00;;;;;;5093235;28;20394;-74
2021/06/21 03:15:33;;;;;;;5.93;2.60;;;18.00;1.00;;;;;;5092396;28;20498;-74
2021/06/21 03:18:00;;;;;;;26.77;2.70;;;18.10;1.00;;;;;;5081176;28;20394;-74
2021/06/21 03:20:26;;;;;;;16.93;2.70;;;18.10;1.00;;;;;;5074035;28;20394;-73
2021/06/21 03:23:01;;;;;;;9.40;3.00;;;18.00;1.00;;;;;;5073599;28;20393;-73
2021/06/21 03:25:32;;;;;;;16.37;3.43;;;18.00;1.00;;;;;;5074469;28;20400;-74
2021/06/21 03:28:10;;;;;;;13.93;3.40;;;18.00;1.00;;;;;;5073379;28;20407;-74
2021/06/21 03:30:38;;;;;;;8.17;2.70;;;18.00;1.00;;;;;;5073602;28;20901;-73
2021/06/21 03:33:04;;;;;;;16.60;4.00;;;17.90;1.00;;;;;;5073586;28;20438;-74
2021/06/21 03:35:34;;;;;;;24.43;4.03;;;18.00;1.00;;;;;;5072979;28;20470;-74
2021/06/21 03:38:13;;;;;;;13.20;3.20;;;18.00;1.00;;;;;;5073881;28;20473;-75
2021/06/21 03:40:42;;;;;;;19.10;4.00;;;18.00;1.00;;;;;;5086498;28;20438;-73
2021/06/21 03:43:24;;;;;;;18.47;3.37;;;18.00;1.00;;;;;;5072364;28;20415;-79
2021/06/21 03:45:55;;;;;;;10.73;3.00;;;18.00;1.00;;;;;;5074398;28;20452;-78
2021/06/21 03:48:21;;;;;;;11.57;3.33;;;18.10;1.00;;;;;;5093060;28;20452;-79
2021/06/21 03:51:10;;;;;;;12.33;2.93;;;18.20;1.00;;;;;;5073136;28;20927;-80
2021/06/21 03:53:40;;;;;;;16.07;3.50;;;18.30;1.00;;;;;;5074317;28;20737;-79
2021/06/21 03:56:06;;;;;;;14.30;3.50;;;18.30;1.00;;;;;;5071401;28;20802;-79
2021/06/21 03:59:04;;;;;;;10.87;2.90;;;18.30;1.00;;;;;;5071727;28;20510;-79
2021/06/21 04:01:34;;;;;;;13.17;3.60;;;18.40;1.00;;;;;;5073389;28;20175;-79
2021/06/21 04:04:46;;;;;;;23.47;3.53;;;18.50;1.00;;;;;;5071787;28;20416;-79
2021/06/21 04:07:28;;;;;;;14.00;3.33;;;18.50;1.00;;;;;;5078932;28;20399;-79
2021/06/21 04:10:13;;;;;;;18.53;3.23;;;18.60;1.00;;;;;;5081573;28;20435;-79
2021/06/21 04:12:42;;;;;;;15.67;2.70;;;18.70;1.00;;;;;;5079815;28;20731;-80
2021/06/21 04:15:12;;;;;;;13.90;3.23;;;18.70;1.00;;;;;;5086256;28;20450;-79
2021/06/21 04:17:52;;;;;;;10.93;3.13;;;18.70;1.00;;;;;;5072851;28;20962;-80
2021/06/21 04:20:41;;;;;;;7.70;2.20;;;18.80;1.00;;;;;;5072792;28;20846;-80
2021/06/21 04:23:28;;;;;;;10.10;2.97;;;18.80;1.00;;;;;;5073299;28;20462;-81
2021/06/21 04:25:53;;;;;;;6.87;2.10;;;18.80;1.00;;;;;;5075608;28;20466;-81
2021/06/21 04:28:22;;;;;;;9.47;2.80;;;18.80;1.00;;;;;;5076590;28;20440;-80
2021/06/21 04:30:52;;;;;;;12.20;3.10;;;18.80;1.00;;;;;;5075824;28;20542;-80
2021/06/21 04:33:58;;;;;;;10.10;2.30;;;18.80;1.00;;;;;;5075735;28;20426;-80
2021/06/21 04:36:46;;;;;;;12.70;2.60;;;18.70;1.00;;;;;;5087502;28;20447;-80
2021/06/21 04:39:16;;;;;;;12.10;2.57;;;18.70;1.00;;;;;;5076890;28;20437;-79
2021/06/21 04:42:10;;;;;;;9.80;3.20;;;18.60;1.00;;;;;;5081286;28;20917;-80
2021/06/21 04:44:35;;;;;;;10.33;2.90;;;18.70;1.00;;;;;;5090885;28;20401;-80
2021/06/21 04:47:01;;;;;;;12.53;2.73;;;18.70;1.00;;;;;;5076540;28;20416;-80
2021/06/21 04:49:27;;;;;;;6.03;2.40;;;18.70;1.00;;;;;;5076465;28;20178;-80
2021/06/21 04:52:09;;;;;;;10.80;2.83;;;18.70;1.00;;;;;;5075966;28;20181;-79
2021/06/21 04:54:35;;;;;;;6.87;2.53;;;18.70;1.00;;;;;;5087558;28;20179;-80
2021/06/21 04:57:10;;;;;;;9.93;2.60;;;18.70;1.00;;;;;;5096563;28;20804;-79
2021/06/21 05:00:05;;;;;;;17.77;3.10;;;18.70;1.00;;;;;;5096884;28;20156;-79
2021/06/21 05:02:52;;;;;;;12.20;2.60;;;18.80;1.00;;;;;;5078554;28;20390;-80
2021/06/21 05:05:19;;;;;;;17.43;3.43;;;18.90;1.00;;;;;;5075158;28;20381;-79
2021/06/21 05:07:54;;;;;;;8.63;2.67;;;18.90;1.00;;;;;;5094016;28;20421;-80
2021/06/21 05:10:29;;;;;;;8.80;2.40;;;18.90;1.00;;;;;;5083558;28;20457;-80
2021/06/21 05:12:58;;;;;;;11.20;2.53;;;18.90;1.00;;;;;;5076110;28;20403;-82
2021/06/21 05:15:34;;;;;;;15.97;3.03;;;18.90;1.00;;;;;;5077752;28;20433;-80
2021/06/21 05:18:22;;;;;;;22.53;4.10;;;19.00;1.00;;;;;;5074477;28;20963;-80
2021/06/21 05:20:48;;;;;;;10.07;2.90;;;19.00;1.00;;;;;;5075758;28;20383;-81
2021/06/21 05:23:34;;;;;;;11.47;3.20;;;19.10;1.00;;;;;;5076054;28;20417;-80
2021/06/21 05:26:04;;;;;;;4.83;2.23;;;19.10;1.00;;;;;;5077660;28;20205;-79
2021/06/21 05:28:46;;;;;;;6.80;1.93;;;19.20;1.00;;;;;;5075549;28;20416;-79
2021/06/21 05:31:16;;;;;;;16.60;2.57;;;19.20;1.00;;;;;;5083833;28;20428;-79
2021/06/21 05:33:45;;;;;;;4.67;1.83;;;19.30;1.00;;;;;;5075597;28;20431;-74
2021/06/21 05:36:16;;;;;;;8.33;2.40;;;19.40;1.00;;;;;;5074060;28;20447;-74
2021/06/21 05:38:42;;;;;;;12.07;2.73;;;19.50;1.00;;;;;;5090382;28;20426;-74
2021/06/21 05:41:10;;;;;;;9.83;2.50;;;19.70;1.00;;;;;;5094713;28;20404;-74
2021/06/21 05:43:36;;;;;;;6.87;1.90;;;19.70;1.00;;;;;;5078722;28;20559;-74
2021/06/21 05:46:04;;;;;;;8.10;1.70;;;19.90;1.00;;;;;;5075790;28;20420;-74
2021/06/21 05:48:30;;;;;;;8.70;2.13;;;20.00;1.00;;;;;;5074120;28;20261;-74
2021/06/21 05:51:00;;;;;;;7.70;1.73;;;20.10;1.00;;;;;;5081115;28;20485;-74
2021/06/21 05:53:34;;;;;;;14.13;2.20;;;20.20;1.00;;;;;;5076461;28;20504;-74
2021/06/21 05:56:00;;;;;;;12.10;2.20;;;20.30;1.00;;;;;;5081447;28;20443;-74
2021/06/21 05:58:26;;;;;;;8.17;2.07;;;20.40;1.00;;;;;;5074957;28;20394;-74
2021/06/21 06:00:52;;;;;;;10.53;2.13;;;;;;;;;;5076747;28;20214;-74
2021/06/21 06:03:22;;;;;;;11.20;2.33;;;20.50;1.00;;;;;;5093792;28;20859;-74
2021/06/21 06:05:52;;;;;;;8.83;2.03;;;20.70;1.00;;;;;;5084521;28;20417;-74
2021/06/21 06:08:28;;;;;;;7.90;2.00;;;20.80;1.00;;;;;;5084733;28;20411;-76
2021/06/21 06:10:54;;;;;;;9.87;1.70;;;21.00;1.00;;;;;;5074028;28;20426;-76
2021/06/21 06:13:22;;;;;;;14.07;2.40;;;21.10;1.00;;;;;;5074094;28;20424;-76
2021/06/21 06:15:52;;;;;;;5.83;1.67;;;21.10;1.00;;;;;;5075579;28;20481;-78
2021/06/21 06:18:35;;;;;;;4.43;1.97;;;21.10;1.00;;;;;;5074783;28;20429;-76
2021/06/21 06:21:04;;;;;;;10.30;2.13;;;21.40;1.00;;;;;;5084516;28;20820;-76
2021/06/21 06:23:34;;;;;;;14.70;2.43;;;21.40;1.00;;;;;;5093448;28;20418;-80
2021/06/21 06:26:42;;;;;;;11.23;2.27;;;21.50;1.00;;;;;;5077614;28;20414;-79
2021/06/21 06:29:16;;;;;;;6.27;2.27;;;21.50;1.00;;;;;;5074404;28;20399;-79
2021/06/21 06:31:52;;;;;;;13.27;2.07;;;21.40;1.00;;;;;;5073490;28;20437;-79
2021/06/21 06:35:10;;;;;;;5.37;1.90;;;21.40;1.00;;;;;;5077433;28;20389;-79
2021/06/21 06:37:52;;;;;;;11.03;1.87;;;21.60;1.00;;;;;;5094379;28;20433;-80
2021/06/21 06:40:34;;;;;;;5.43;1.27;;;21.60;1.00;;;;;;5084336;28;20770;-76
2021/06/21 06:43:28;;;;;;;11.70;3.33;;;21.60;1.00;;;;;;5089958;28;20872;-75
2021/06/21 06:45:58;;;;;;;7.50;2.37;;;21.60;1.00;;;;;;5075535;28;20450;-77
2021/06/21 06:48:25;;;;;;;8.80;1.93;;;21.60;1.00;;;;;;5075402;28;20425;-76
2021/06/21 06:50:51;;;;;;;10.07;2.13;;;21.70;1.00;;;;;;5090102;28;20923;-76
2021/06/21 06:53:53;;;;;;;11.70;2.20;;;21.80;1.00;;;;;;5074306;28;20420;-79
2021/06/21 06:59:04;;;;;;;9.70;1.73;;;22.40;99.90;;;;;;5073963;28;20480;-74
2021/06/21 07:01:59;;;;;;;8.90;1.60;;;22.50;99.90;;;;;;5073765;28;20446;-77
2021/06/21 07:07:46;;;;;;;6.43;1.80;;;;;;;;;;5073826;28;20452;-77
2021/06/21 07:10:28;;;;;;;9.83;1.40;;;22.30;99.90;;;;;;5075088;28;20499;-74
2021/06/21 07:12:59;;;;;;;5.90;1.40;;;22.30;99.90;;;;;;5079155;28;20515;-74
2021/06/21 07:15:28;;;;;;;5.80;1.47;;;22.30;99.90;;;;;;5089817;28;20501;-74
2021/06/21 07:17:54;;;;;;;26.23;5.20;;;;;;;;;;5070309;28;20452;-74
2021/06/21 07:20:28;;;;;;;14.70;2.07;;;22.60;99.90;;;;;;5080530;28;20867;-74
2021/06/21 07:22:54;;;;;;;14.63;2.00;;;22.60;99.90;;;;;;5073407;28;20412;-74
2021/06/21 07:25:20;;;;;;;8.20;1.53;;;22.80;99.90;;;;;;5074030;28;20395;-74
2021/06/21 07:27:46;;;;;;;12.60;2.20;;;22.60;99.90;;;;;;5075725;28;20182;-74
2021/06/21 07:30:13;;;;;;;2.83;1.80;;;22.40;99.90;;;;;;5084969;28;20167;-74
2021/06/21 07:32:39;;;;;;;7.23;1.77;;;22.40;99.90;;;;;;5093605;28;20427;-74
2021/06/21 07:35:05;;;;;;;11.77;1.93;;;22.10;99.90;;;;;;5093174;28;20388;-74
2021/06/21 07:37:31;;;;;;;9.43;1.80;;;21.80;99.90;;;;;;5087290;28;20368;-73
2021/06/21 07:39:58;;;;;;;9.20;1.60;;;21.90;99.90;;;;;;5078357;28;20420;-74
2021/06/21 07:42:24;;;;;;;7.50;2.27;;;22.00;99.90;;;;;;5073292;28;20159;-74
2021/06/21 07:44:50;;;;;;;11.03;2.00;;;22.10;99.90;;;;;;5086595;28;20908;-73
2021/06/21 07:47:15;;;;;;;6.73;1.67;;;22.10;99.90;;;;;;5084595;28;20233;-74
2021/06/21 07:49:41;;;;;;;9.03;2.20;;;22.00;99.90;;;;;;5073467;28;20256;-74
2021/06/21 07:52:07;;;;;;;7.83;1.90;;;21.90;99.90;;;;;;5081540;28;20176;-74
2021/06/21 07:54:33;;;;;;;7.07;2.13;;;21.90;99.90;;;;;;5088888;28;20697;-74
2021/06/21 07:56:59;;;;;;;6.30;1.87;;;21.80;99.90;;;;;;5073007;28;20482;-74
2021/06/21 07:59:25;;;;;;;13.57;2.40;;;21.90;99.90;;;;;;5072191;28;20175;-74
2021/06/21 08:01:58;;;;;;;7.70;1.77;;;21.90;99.90;;;;;;5071870;28;20230;-74
2021/06/21 08:04:24;;;;;;;12.20;1.60;;;22.00;99.90;;;;;;5073601;28;20416;-74
2021/06/21 08:06:50;;;;;;;10.83;2.00;;;22.30;99.90;;;;;;5083987;28;20415;-74
2021/06/21 08:09:15;;;;;;;4.13;1.57;;;22.50;99.90;;;;;;5070984;28;20197;-74
2021/06/21 08:11:41;;;;;;;8.87;1.50;;;22.90;99.90;;;;;;5076623;28;20643;-74
2021/06/21 08:14:07;;;;;;;5.83;1.83;;;;;;;;;;5072987;28;20630;-74
2021/06/21 08:16:33;;;;;;;6.53;2.10;;;;;;;;;;5076289;28;20213;-74
2021/06/21 08:18:59;;;;;;;12.33;1.93;;;23.10;99.90;;;;;;5075007;28;20422;-74
2021/06/21 08:21:25;;;;;;;4.47;1.40;;;23.30;99.90;;;;;;5084253;28;20488;-74
2021/06/21 08:23:52;;;;;;;8.47;1.90;;;;;;;;;;5080494;28;21031;-73
2021/06/21 08:26:34;;;;;;;4.63;1.47;;;23.30;99.90;;;;;;5076330;28;20167;-76
2021/06/21 08:29:04;;;;;;;4.77;1.30;;;23.30;99.90;;;;;;5084161;28;20436;-77
2021/06/21 08:31:34;;;;;;;5.50;1.90;;;23.60;99.90;;;;;;5092560;28;20433;-77
2021/06/21 08:34:11;;;;;;;6.00;1.60;;;23.60;99.90;;;;;;5090379;28;20428;-76
2021/06/21 08:36:36;;;;;;;4.30;1.33;;;23.60;99.90;;;;;;5092827;28;20457;-77
2021/06/21 08:39:04;;;;;;;10.40;2.10;;;23.80;99.90;;;;;;5093117;28;20389;-77
2021/06/21 08:41:55;;;;;;;3.80;1.40;;;23.80;99.90;;;;;;5092708;28;20368;-77
2021/06/21 08:44:28;;;;;;;3.20;1.10;;;23.90;99.90;;;;;;5090792;28;20410;-77
2021/06/21 08:47:04;;;;;;;5.57;1.30;;;23.90;99.90;;;;;;5092920;28;20867;-78
2021/06/21 08:49:46;;;;;;;4.60;1.50;;;24.00;99.90;;;;;;5089989;28;20908;-77
2021/06/21 08:52:16;;;;;;;9.70;1.87;;;23.90;99.90;;;;;;5082948;28;20405;-77
2021/06/21 08:54:54;;;;;;;11.33;2.00;;;23.90;99.90;;;;;;5086870;28;20477;-77
2021/06/21 08:57:22;;;;;;;5.57;1.33;;;23.90;99.90;;;;;;5092618;28;20460;-78
2021/06/21 08:59:52;;;;;;;10.00;2.40;;;24.00;99.90;;;;;;5080947;28;20464;-76
2021/06/21 09:02:35;;;;;;;3.80;1.37;;;23.90;99.90;;;;;;5072458;28;20967;-77
2021/06/21 09:05:04;;;;;;;7.90;1.67;;;23.80;99.90;;;;;;5072901;28;20422;-77
2021/06/21 09:08:02;;;;;;;10.40;1.47;;;23.80;99.90;;;;;;5080981;28;20433;-77
2021/06/21 09:10:30;;;;;;;4.80;1.70;;;23.90;99.90;;;;;;5094811;28;20438;-74
2021/06/21 09:13:17;;;;;;;6.97;1.90;;;24.10;99.90;;;;;;5096177;28;20394;-73
2021/06/21 09:15:54;;;;;;;1.50;1.40;;;24.30;99.90;;;;;;5083731;28;20455;-73
2021/06/21 09:18:28;;;;;;;2.40;1.70;;;24.70;99.90;;;;;;5086729;28;20893;-74
2021/06/21 09:21:24;;;;;;;5.73;1.60;;;24.60;99.90;;;;;;5078341;28;20869;-76
2021/06/21 09:24:34;;;;;;;3.93;1.70;;;24.30;99.90;;;;;;5075853;28;20434;-77
2021/06/21 09:27:19;;;;;;;4.07;1.70;;;24.40;99.90;;;;;;5079889;28;20426;-76
2021/06/21 09:39:50;;;;;;;5.80;1.50;;;24.00;99.90;;;;;;5074794;28;20960;-75
2021/06/21 09:42:23;;;;;;;4.83;1.50;;;24.40;99.90;;;;;;5074412;28;20502;-77
2021/06/21 09:44:56;;;;;;;3.27;1.50;;;24.40;99.90;;;;;;5074098;28;20156;-77
2021/06/21 09:47:33;;;;;;;3.03;1.57;;;24.30;99.90;;;;;;5074564;28;20878;-77
2021/06/21 09:50:09;;;;;;;9.63;2.57;;;24.40;99.90;;;;;;5078392;28;20510;-77
2021/06/21 09:52:40;;;;;;;5.10;1.60;;;24.50;99.90;;;;;;5088755;28;20414;-77
2021/06/21 09:55:15;;;;;;;5.33;1.73;;;24.50;99.90;;;;;;5095226;28;20639;-77
2021/06/21 09:57:41;;;;;;;2.90;1.80;;;24.50;99.90;;;;;;5094624;28;20523;-77
2021/06/21 10:00:09;;;;;;;6.83;1.60;;;24.60;99.90;;;;;;5093631;28;20423;-77
2021/06/21 10:02:35;;;;;;;3.70;2.10;;;24.70;99.90;;;;;;5091826;28;20415;-77
2021/06/21 10:05:01;;;;;;;1.70;1.60;;;24.90;99.90;;;;;;5093735;28;20402;-76
2021/06/21 10:07:36;;;;;;;3.50;1.40;;;25.00;99.90;;;;;;5082444;28;20415;-77
2021/06/21 10:10:01;;;;;;;3.07;1.87;;;25.00;99.90;;;;;;5091174;28;20873;-77
2021/06/21 10:12:27;;;;;;;13.77;2.20;;;25.00;99.90;;;;;;5089540;28;20469;-74
2021/06/21 10:14:54;;;;;;;3.33;1.80;;;25.00;99.90;;;;;;5073902;28;20188;-73
2021/06/21 10:17:20;;;;;;;3.33;1.70;;;25.30;99.90;;;;;;5073389;28;20468;-73
2021/06/21 10:19:46;;;;;;;4.93;1.60;;;25.60;99.90;;;;;;5072822;28;20996;-74
2021/06/21 10:22:12;;;;;;;5.37;1.93;;;25.50;99.90;;;;;;5072510;28;20463;-74
2021/06/21 10:24:38;;;;;;;3.83;1.70;;;25.50;99.90;;;;;;5086800;28;20185;-73
2021/06/21 10:27:06;;;;;;;1.77;1.60;;;25.40;99.90;;;;;;5091941;28;20269;-76
2021/06/21 10:29:33;;;;;;;3.33;1.60;;;25.30;99.90;;;;;;5091207;28;20968;-76
2021/06/21 10:32:06;;;;;;;2.87;2.00;;;25.30;99.90;;;;;;5090666;28;20463;-76
2021/06/21 10:34:32;;;;;;;4.93;1.70;;;25.20;99.90;;;;;;5073245;28;20940;-76
2021/06/21 10:36:59;;;;;;;5.80;2.03;;;25.10;99.90;;;;;;5074976;28;20504;-77
2021/06/21 10:39:27;;;;;;;5.80;1.97;;;25.00;99.90;;;;;;5073602;28;20396;-74
2021/06/21 10:42:05;;;;;;;7.73;2.57;;;25.20;99.90;;;;;;5073767;28;20410;-76
2021/06/21 10:44:54;;;;;;;2.27;1.87;;;25.30;99.90;;;;;;5078829;28;20423;-77
2021/06/21 10:47:30;;;;;;;3.93;1.70;;;25.70;99.90;;;;;;5072770;28;20512;-77
2021/06/21 10:50:03;;;;;;;4.03;1.93;;;25.80;99.90;;;;;;5074082;28;20432;-77
2021/06/21 10:52:37;;;;;;;6.53;1.77;;;25.90;99.90;;;;;;5084507;28;20420;-77
2021/06/21 10:55:21;;;;;;;6.97;1.90;;;26.10;99.90;;;;;;5085746;28;20446;-77
2021/06/21 10:57:56;;;;;;;2.70;2.03;;;25.80;99.90;;;;;;5085117;28;20508;-73
2021/06/21 11:00:43;;;;;;;3.33;1.80;;;25.70;99.90;;;;;;5084287;28;20407;-73
2021/06/21 11:03:27;;;;;;;2.00;1.80;;;25.80;99.90;;;;;;5091617;28;20427;-73
2021/06/21 11:05:53;;;;;;;6.80;2.93;;;25.80;99.90;;;;;;5091455;28;20727;-73
2021/06/21 11:08:27;;;;;;;3.73;1.83;;;25.80;99.90;;;;;;5091298;28;20891;-73
2021/06/21 11:11:21;;;;;;;6.53;2.30;;;25.80;99.90;;;;;;5073225;28;20428;-73
2021/06/21 11:13:47;;;;;;;5.90;2.57;;;25.80;99.90;;;;;;5072923;28;20922;-73
2021/06/21 11:16:19;;;;;;;2.67;1.80;;;26.00;99.90;;;;;;5084792;28;20458;-73
2021/06/21 11:18:51;;;;;;;2.30;1.77;;;26.00;99.90;;;;;;5071923;28;20541;-73
2021/06/21 11:21:18;;;;;;;5.10;2.27;;;26.50;99.90;;;;;;5075278;28;20836;-74
2021/06/21 11:23:48;;;;;;;2.07;1.93;;;26.60;99.90;;;;;;5072695;28;20454;-74
2021/06/21 11:26:15;;;;;;;11.97;2.00;;;26.80;99.90;;;;;;5076598;28;20890;-76
2021/06/21 11:28:42;;;;;;;4.40;2.00;;;26.70;99.90;;;;;;5087231;28;21014;-76
2021/06/21 11:31:19;;;;;;;8.00;1.80;;;26.80;99.90;;;;;;5084320;28;20843;-76
2021/06/21 11:34:11;;;;;;;2.00;1.90;;;26.70;99.90;;;;;;5070795;28;20432;-76
2021/06/21 11:36:41;;;;;;;2.30;1.70;;;26.70;99.90;;;;;;5071865;28;20472;-77
2021/06/21 11:39:23;;;;;;;12.67;2.80;;;26.70;99.90;;;;;;5073974;28;20789;-77
2021/06/21 11:42:06;;;;;;;11.20;2.10;;;26.40;99.90;;;;;;5074835;28;20438;-73
2021/06/21 11:44:40;;;;;;;9.73;2.50;;;26.40;99.90;;;;;;5070970;28;20546;-73
2021/06/21 11:47:14;;;;;;;5.43;1.93;;;26.50;99.90;;;;;;5083956;28;20742;-73
2021/06/21 11:49:45;;;;;;;3.13;1.70;;;26.70;99.90;;;;;;5080080;28;20930;-73
2021/06/21 11:52:15;;;;;;;2.40;1.73;;;26.70;99.90;;;;;;5072688;28;20421;-73
2021/06/21 11:54:44;;;;;;;4.53;1.67;;;26.70;99.90;;;;;;5072807;28;20447;-73
2021/06/21 11:57:11;;;;;;;2.10;1.60;;;26.70;99.90;;;;;;5092571;28;20466;-73
2021/06/21 11:59:42;;;;;;;2.23;1.90;;;26.90;99.90;;;;;;5079087;28;20419;-73
2021/06/21 12:02:14;;;;;;;3.00;1.43;;;26.90;99.90;;;;;;5072135;28;20446;-73
2021/06/21 12:04:41;;;;;;;6.80;1.40;;;26.90;99.90;;;;;;5086075;28;20785;-73
2021/06/21 12:07:09;;;;;;;1.33;1.10;;;26.70;99.90;;;;;;5092157;28;20408;-73
2021/06/21 12:09:52;;;;;;;8.70;1.17;;;26.80;99.90;;;;;;5082012;28;20422;-74
2021/06/21 12:12:37;;;;;;;3.37;1.40;;;26.50;99.90;;;;;;5073276;28;20447;-73
2021/06/21 12:15:10;;;;;;;6.83;2.17;;;26.60;99.90;;;;;;5071067;28;20840;-73
2021/06/21 12:17:36;;;;;;;1.83;1.30;;;26.50;99.90;;;;;;5082955;28;20451;-73
2021/06/21 12:20:19;;;;;;;2.70;1.00;;;26.50;99.90;;;;;;5071911;28;20471;-74
2021/06/21 12:23:11;;;;;;;3.43;2.00;;;26.40;99.90;;;;;;5083718;28;20456;-73
2021/06/21 12:25:47;;;;;;;2.30;1.20;;;26.40;99.90;;;;;;5092383;28;20390;-73
2021/06/21 12:28:14;;;;;;;4.90;1.37;;;26.30;99.90;;;;;;5089209;28;20412;-73
2021/06/21 12:30:42;;;;;;;5.33;1.30;;;26.40;99.90;;;;;;5079434;28;20406;-73
2021/06/21 12:33:28;;;;;;;13.03;2.80;;;26.50;99.90;;;;;;5088349;28;20414;-73
2021/06/21 12:36:17;;;;;;;1.30;1.20;;;26.70;99.90;;;;;;5072008;28;20407;-73
2021/06/21 12:38:50;;;;;;;4.60;1.37;;;26.70;99.90;;;;;;5079798;28;20438;-73
2021/06/21 12:41:17;;;;;;;7.57;1.63;;;26.80;99.90;;;;;;5088603;28;20413;-73
2021/06/21 12:43:53;;;;;;;6.30;1.67;;;26.80;99.90;;;;;;5089821;28;20405;-74
2021/06/21 12:46:21;;;;;;;1.57;1.47;;;27.10;99.90;;;;;;5081902;28;20761;-73
2021/06/21 12:48:47;;;;;;;7.40;1.50;;;27.10;99.90;;;;;;5084460;28;20422;-73
2021/06/21 12:51:13;;;;;;;5.93;1.07;;;27.10;99.90;;;;;;5092873;28;20920;-73
2021/06/21 12:53:48;;;;;;;32.53;5.77;;;27.30;99.90;;;;;;5081379;28;20537;-73
2021/06/21 12:56:20;;;;;;;1.97;1.60;;;27.30;99.90;;;;;;5094753;28;20464;-73
2021/06/21 12:58:46;;;;;;;3.90;1.90;;;;;;;;;;5085979;28;20421;-73
2021/06/21 13:01:24;;;;;;;4.03;1.60;;;27.60;99.90;;;;;;5081420;28;20889;-73
2021/06/21 13:03:50;;;;;;;4.37;1.83;;;27.70;99.90;;;;;;5073924;28;20420;-73
2021/06/21 13:06:47;;;;;;;3.10;1.80;;;27.60;99.90;;;;;;5089151;28;20412;-73
2021/06/21 13:09:18;;;;;;;2.80;1.40;;;27.80;99.90;;;;;;5081227;28;20416;-73
2021/06/21 13:11:55;;;;;;;3.27;1.47;;;27.70;99.90;;;;;;5084018;28;20474;-76
2021/06/21 13:14:28;;;;;;;3.23;1.53;;;27.70;99.90;;;;;;5092115;28;20437;-73
2021/06/21 13:17:10;;;;;;;5.40;1.60;;;27.80;99.90;;;;;;5091553;28;20817;-73
2021/06/21 13:19:46;;;;;;;1.90;1.40;;;27.90;99.90;;;;;;5075230;28;20465;-73
2021/06/21 13:22:13;;;;;;;2.10;1.60;;;27.90;99.90;;;;;;5080045;28;20426;-73
2021/06/21 13:24:39;;;;;;;2.10;1.60;;;27.90;99.90;;;;;;5090108;28;20426;-73
2021/06/21 13:27:30;;;;;;;2.70;1.70;;;27.90;99.90;;;;;;5089452;28;20844;-73
2021/06/21 13:29:59;;;;;;;2.43;1.70;;;28.10;99.90;;;;;;5074715;28;20177;-73
2021/06/21 13:32:29;;;;;;;4.03;1.43;;;28.20;99.90;;;;;;5074688;28;20523;-73
2021/06/21 13:34:58;;;;;;;1.77;1.50;;;28.20;99.90;;;;;;5074881;28;20426;-74
2021/06/21 13:37:31;;;;;;;5.03;1.67;;;28.50;99.90;;;;;;5087949;28;20451;-73